Time;durP1;ratioP1;P1;durP2;ratioP2;P2;SDS_P1;SDS_P2;PMS_P1;PMS_P2;Temp;Humidity;BMP_temperature;BMP_pressure;BME280_temperature;BME280_humidity;BME280_pressure;Samples;Min_cycle;Max_cycle;Signal;HPM_P1;HPM_P2
2022/07/31 00:00:23;;;;;;;9.60;4.70;;;;;;;17.14;72.51;99918.41;4907630;29;20052;-55
2022/07/31 00:02:49;;;;;;;9.82;5.40;;;;;;;16.99;72.21;99898.19;4922145;29;20225;-55
2022/07/31 00:05:15;;;;;;;10.20;5.28;;;;;;;17.11;71.94;99920.34;4906975;29;20032;-56
2022/07/31 00:07:41;;;;;;;8.30;4.80;;;;;;;17.09;72.60;99912.56;4905824;29;20032;-56
2022/07/31 00:10:07;;;;;;;8.73;5.70;;;;;;;17.06;72.84;99916.16;4906765;29;20478;-56
2022/07/31 00:12:33;;;;;;;12.43;5.97;;;;;;;17.08;72.34;99918.72;4905146;29;20029;-56
2022/07/31 00:15:04;;;;;;;8.43;5.47;;;;;;;17.00;72.42;99900.75;4906514;29;20055;-56
2022/07/31 00:17:30;;;;;;;6.28;5.05;;;;;;;17.06;72.87;99923.19;4906295;29;20033;-56
2022/07/31 00:19:55;;;;;;;8.43;5.45;;;;;;;16.98;73.32;99920.88;4906053;29;20044;-55
2022/07/31 00:22:21;;;;;;;8.30;5.57;;;;;;;16.97;72.93;99916.56;4906919;29;20024;-56
2022/07/31 00:24:46;;;;;;;8.98;5.57;;;;;;;17.02;72.53;99919.81;4905316;29;20035;-56
2022/07/31 00:27:12;;;;;;;9.20;5.90;;;;;;;17.00;72.66;99915.56;4905314;29;20032;-56
2022/07/31 00:29:38;;;;;;;9.60;5.63;;;;;;;17.04;72.94;99914.53;4906163;29;20341;-55
2022/07/31 00:32:04;;;;;;;8.52;5.80;;;;;;;16.97;72.84;99911.31;4904906;29;20119;-55
2022/07/31 00:34:30;;;;;;;8.05;5.68;;;;;;;16.95;73.68;99907.94;4905937;29;20041;-55
2022/07/31 00:36:55;;;;;;;11.27;5.80;;;;;;;16.93;73.70;99915.03;4905540;29;20028;-54
2022/07/31 00:39:22;;;;;;;7.68;5.47;;;;;;;16.85;73.68;99904.84;4905720;29;20029;-55
2022/07/31 00:41:48;;;;;;;10.10;6.07;;;;;;;16.95;73.26;99905.31;4907738;29;20034;-56
2022/07/31 00:44:14;;;;;;;7.45;5.65;;;;;;;16.97;72.95;99911.31;4925030;29;20220;-55
2022/07/31 00:46:40;;;;;;;12.00;6.07;;;;;;;16.87;73.60;99894.31;4921771;29;20052;-56
2022/07/31 00:49:09;;;;;;;9.48;5.72;;;;;;;16.95;73.28;99904.47;4912633;29;20056;-55
2022/07/31 00:51:36;;;;;;;10.15;6.13;;;;;;;16.85;73.50;99888.31;4909650;29;20052;-54
2022/07/31 00:54:02;;;;;;;12.63;6.95;;;;;;;16.88;73.00;99896.03;4912033;29;20032;-54
2022/07/31 00:56:28;;;;;;;9.63;5.88;;;;;;;16.90;73.41;99902.03;4925913;29;20027;-54
2022/07/31 00:58:54;;;;;;;10.25;6.20;;;;;;;16.81;73.65;99897.19;4910605;29;20220;-55
2022/07/31 01:01:21;;;;;;;9.52;5.90;;;;;;;16.83;73.73;99906.69;4910544;29;20066;-55
2022/07/31 01:03:47;;;;;;;11.05;5.90;;;;;;;16.80;73.78;99908.56;4910611;29;20032;-55
2022/07/31 01:06:13;;;;;;;8.23;5.85;;;;;;;16.68;73.69;99908.19;4910514;29;20055;-54
2022/07/31 01:08:39;;;;;;;7.25;5.60;;;;;;;16.67;74.51;99903.88;4910661;29;20122;-54
2022/07/31 01:11:11;;;;;;;8.20;5.47;;;;;;;16.60;74.36;99902.44;4910362;29;20198;-54
2022/07/31 01:13:50;;;;;;;9.93;5.88;;;;;;;16.53;74.54;99890.53;4920598;29;20230;-55
2022/07/31 01:16:17;;;;;;;13.82;6.63;;;;;;;16.34;74.14;99862.56;4917140;29;20071;-54
2022/07/31 01:18:45;;;;;;;8.73;6.30;;;;;;;16.66;74.30;99917.00;4919013;29;20217;-54
2022/07/31 01:21:35;;;;;;;10.13;6.40;;;;;;;16.38;74.38;99864.13;4919177;29;20088;-55
2022/07/31 01:24:13;;;;;;;13.07;6.72;;;;;;;16.62;75.11;99912.84;4915731;29;20388;-55
2022/07/31 01:27:09;;;;;;;10.77;6.30;;;;;;;16.56;75.35;99913.97;4921445;29;20066;-54
2022/07/31 01:29:45;;;;;;;10.90;6.25;;;;;;;16.46;75.33;99908.28;4910021;29;20047;-55
2022/07/31 01:32:27;;;;;;;11.52;6.80;;;;;;;16.51;75.42;99908.91;4910163;29;20036;-55
2022/07/31 01:35:10;;;;;;;10.45;6.97;;;;;;;16.14;75.87;99862.56;4907896;29;20062;-56
2022/07/31 01:37:42;;;;;;;10.15;6.15;;;;;;;16.40;76.30;99913.72;4891472;29;20147;-55
2022/07/31 01:40:12;;;;;;;10.40;6.28;;;;;;;16.09;76.02;99856.66;4907243;29;20032;-55
2022/07/31 01:42:42;;;;;;;13.45;6.93;;;;;;;16.41;76.04;99925.06;4910183;29;20060;-55
2022/07/31 01:45:11;;;;;;;9.38;6.20;;;;;;;16.49;75.32;99904.66;4903240;29;20099;-55
2022/07/31 01:47:39;;;;;;;11.70;7.03;;;;;;;16.53;75.13;99907.09;4923975;29;20132;-55
2022/07/31 01:50:07;;;;;;;10.80;6.78;;;;;;;16.49;75.77;99907.25;4910191;29;20093;-56
2022/07/31 01:52:34;;;;;;;13.95;7.10;;;;;;;16.49;75.91;99909.88;4909725;29;20088;-56
2022/07/31 01:55:02;;;;;;;9.60;6.22;;;;;;;16.50;75.36;99935.13;4909176;29;20069;-55
2022/07/31 01:57:31;;;;;;;9.13;6.60;;;;;;;16.53;75.82;99911.44;4909554;29;20221;-55
2022/07/31 02:00:02;;;;;;;13.68;6.90;;;;;;;16.49;75.57;99909.88;4909551;29;20052;-56
2022/07/31 02:02:30;;;;;;;12.95;6.50;;;;;;;16.50;75.73;99906.34;4909560;29;20425;-56
2022/07/31 02:04:57;;;;;;;12.13;6.40;;;;;;;16.55;75.44;99915.72;4909443;29;20037;-55
2022/07/31 02:07:24;;;;;;;9.13;6.20;;;;;;;16.46;75.37;99902.16;4909661;29;20040;-55
2022/07/31 02:09:51;;;;;;;10.00;6.35;;;;;;;16.51;75.86;99908.06;4909454;29;20055;-55
2022/07/31 02:12:18;;;;;;;9.95;6.50;;;;;;;16.54;76.05;99916.63;4909497;29;20331;-55
2022/07/31 02:15:07;;;;;;;14.93;7.07;;;;;;;16.51;75.98;99929.81;4908869;29;20210;-57
2022/07/31 02:17:33;;;;;;;10.20;6.03;;;;;;;16.55;75.09;99909.63;4909145;29;20202;-56
2022/07/31 02:20:01;;;;;;;10.25;5.85;;;;;;;16.34;75.12;99864.34;4909339;29;20029;-56
2022/07/31 02:22:28;;;;;;;12.13;5.78;;;;;;;16.58;75.31;99913.91;4908041;29;20229;-56
2022/07/31 02:24:54;;;;;;;13.15;5.57;;;;;;;16.55;75.29;99912.25;4908908;29;20040;-56
2022/07/31 02:27:21;;;;;;;10.00;5.90;;;;;;;16.30;74.71;99868.84;4907980;29;20041;-57
2022/07/31 02:29:48;;;;;;;13.52;5.78;;;;;;;16.62;74.85;99913.69;4909110;29;20025;-57
2022/07/31 02:32:16;;;;;;;9.18;5.38;;;;;;;16.65;74.64;99920.56;4909034;29;20320;-57
2022/07/31 02:34:43;;;;;;;8.77;5.72;;;;;;;16.62;74.16;99902.38;4909130;29;20028;-55
2022/07/31 02:37:10;;;;;;;14.25;6.20;;;;;;;16.68;74.05;99913.41;4907756;29;20021;-53
2022/07/31 02:39:37;;;;;;;8.95;4.85;;;;;;;16.41;73.79;99862.31;4908821;29;20052;-54
2022/07/31 02:42:04;;;;;;;8.82;5.30;;;;;;;16.63;74.22;99898.84;4908735;29;20392;-53
2022/07/31 02:44:31;;;;;;;7.68;5.32;;;;;;;16.47;73.72;99859.44;4908586;29;20069;-53
2022/07/31 02:46:59;;;;;;;10.40;5.55;;;;;;;16.82;73.34;99912.00;4923902;29;20047;-53
2022/07/31 02:49:26;;;;;;;11.38;5.35;;;;;;;16.88;73.46;99907.34;4908050;29;20032;-53
2022/07/31 02:51:52;;;;;;;9.77;5.90;;;;;;;16.88;73.55;99899.50;4908601;29;20044;-54
2022/07/31 02:54:17;;;;;;;11.38;5.45;;;;;;;16.94;73.13;99908.84;4908634;29;20032;-54
2022/07/31 02:56:46;;;;;;;9.73;5.40;;;;;;;16.95;73.22;99909.72;4908619;29;20072;-54
2022/07/31 02:59:11;;;;;;;7.47;4.60;;;;;;;16.95;73.55;99905.31;4923036;29;20035;-54
2022/07/31 03:01:37;;;;;;;6.60;4.47;;;;;;;17.05;73.25;99911.84;4908631;29;20032;-55
2022/07/31 03:04:03;;;;;;;12.57;5.60;;;;;;;17.07;73.77;99917.00;4908459;29;20325;-54
2022/07/31 03:06:28;;;;;;;10.50;4.85;;;;;;;17.13;72.29;99905.41;4922248;29;20040;-55
2022/07/31 03:08:54;;;;;;;9.65;4.65;;;;;;;17.17;71.89;99907.84;4908456;29;20209;-56
2022/07/31 03:11:20;;;;;;;9.15;5.18;;;;;;;17.19;72.86;99907.78;4908477;29;20032;-56
2022/07/31 03:13:47;;;;;;;7.70;4.63;;;;;;;17.25;72.59;99913.56;4908385;29;20036;-55
2022/07/31 03:16:13;;;;;;;12.23;5.15;;;;;;;17.31;72.10;99912.41;4908323;29;20254;-55
2022/07/31 03:18:40;;;;;;;11.52;5.13;;;;;;;17.34;72.62;99920.13;4908273;29;20048;-55
2022/07/31 03:21:09;;;;;;;8.75;4.75;;;;;;;17.37;72.49;99909.53;4907885;29;20329;-54
2022/07/31 03:23:35;;;;;;;7.72;4.95;;;;;;;17.45;72.42;99913.56;4907754;29;20036;-55
2022/07/31 03:26:02;;;;;;;11.00;5.45;;;;;;;17.40;72.74;99901.53;4908043;29;20063;-55
2022/07/31 03:28:28;;;;;;;8.43;4.68;;;;;;;17.56;72.06;99911.31;4908015;29;20099;-54
2022/07/31 03:30:55;;;;;;;10.65;5.22;;;;;;;17.64;71.87;99910.94;4907914;29;20024;-55
2022/07/31 03:33:21;;;;;;;9.48;5.32;;;;;;;17.69;71.93;99914.19;4907852;29;20068;-54
2022/07/31 03:35:48;;;;;;;11.48;6.22;;;;;;;17.77;72.88;99912.91;4908073;29;20217;-56
2022/07/31 03:38:13;;;;;;;6.75;5.38;;;;;;;17.86;72.33;99908.16;4906595;29;20216;-55
2022/07/31 03:40:39;;;;;;;8.98;5.20;;;;;;;17.93;71.53;99904.34;4907890;29;20029;-54
2022/07/31 03:43:06;;;;;;;7.45;5.43;;;;;;;17.99;71.51;99908.44;4907735;29;20032;-55
2022/07/31 03:45:33;;;;;;;10.05;5.30;;;;;;;18.06;71.85;99921.16;4911546;29;20059;-54
2022/07/31 03:48:00;;;;;;;9.40;5.57;;;;;;;18.14;71.91;99915.53;4920238;29;20037;-54
2022/07/31 03:50:27;;;;;;;6.38;4.97;;;;;;;18.15;71.81;99906.75;4907489;29;20028;-55
2022/07/31 03:52:53;;;;;;;10.02;5.38;;;;;;;18.38;71.33;99923.13;4907813;29;20321;-55
2022/07/31 03:55:19;;;;;;;7.15;5.18;;;;;;;18.46;70.83;99921.81;4919200;29;20051;-54
2022/07/31 03:57:46;;;;;;;6.65;4.88;;;;;;;18.50;71.36;99930.38;4913957;29;20246;-54
2022/07/31 04:00:12;;;;;;;10.48;5.18;;;;;;;18.56;71.08;99931.84;4907641;29;20076;-54
2022/07/31 04:02:38;;;;;;;8.25;5.05;;;;;;;18.61;70.33;99928.06;4907491;29;20036;-54
2022/07/31 04:05:04;;;;;;;8.63;4.53;;;;;;;18.69;70.14;99927.66;4907451;29;20400;-56
2022/07/31 04:07:30;;;;;;;7.57;4.80;;;;;;;18.83;69.84;99929.59;4907458;29;20059;-56
2022/07/31 04:09:55;;;;;;;7.05;4.68;;;;;;;18.88;69.10;99935.44;4907324;29;20209;-57
2022/07/31 04:12:21;;;;;;;7.22;4.65;;;;;;;18.96;69.14;99927.19;4907079;29;20036;-57
2022/07/31 04:14:47;;;;;;;7.35;4.82;;;;;;;19.01;68.59;99924.31;4906534;29;20036;-57
2022/07/31 04:17:13;;;;;;;8.40;4.25;;;;;;;18.99;69.61;99932.28;4906083;29;20033;-56
2022/07/31 04:19:39;;;;;;;7.57;4.63;;;;;;;19.09;69.19;99927.41;4907277;29;20059;-55
2022/07/31 04:22:04;;;;;;;7.60;4.82;;;;;;;19.13;69.14;99931.56;4907188;29;20051;-55
2022/07/31 04:24:30;;;;;;;7.80;4.88;;;;;;;19.16;69.27;99930.56;4907111;29;20036;-55
2022/07/31 04:26:56;;;;;;;5.97;4.03;;;;;;;19.19;67.93;99928.59;4907168;29;20129;-55
2022/07/31 04:29:23;;;;;;;6.95;4.68;;;;;;;19.25;67.73;99924.78;4907259;29;20240;-55
2022/07/31 04:31:49;;;;;;;6.13;4.45;;;;;;;19.35;68.06;99923.34;4906990;29;20028;-55
2022/07/31 04:34:15;;;;;;;5.35;3.88;;;;;;;19.41;66.82;99930.06;4907039;29;20076;-56
2022/07/31 04:36:40;;;;;;;4.18;3.00;;;;;;;19.51;65.92;99935.66;4907052;29;20029;-55
2022/07/31 04:39:06;;;;;;;6.82;4.20;;;;;;;19.53;66.19;99928.56;4905523;29;20120;-54
2022/07/31 04:41:32;;;;;;;5.00;3.40;;;;;;;19.60;66.11;99935.19;4907187;29;20028;-55
2022/07/31 04:43:58;;;;;;;4.50;3.50;;;;;;;19.66;65.36;99919.06;4906898;29;20028;-55
2022/07/31 04:46:24;;;;;;;6.80;3.28;;;;;;;19.74;63.49;99916.88;4917921;29;20095;-54
2022/07/31 04:48:50;;;;;;;7.40;3.20;;;;;;;19.79;64.31;99909.56;4912921;29;20040;-56
2022/07/31 04:51:20;;;;;;;5.32;3.28;;;;;;;19.86;64.37;99917.97;4906927;29;20140;-56
2022/07/31 04:53:47;;;;;;;7.85;3.70;;;;;;;19.99;63.44;99918.13;4906747;29;20039;-55
2022/07/31 04:58:59;;;;;;;4.35;3.08;;;;;;;20.10;62.85;99913.09;4906876;29;20228;-56
2022/07/31 05:01:25;;;;;;;4.63;2.83;;;;;;;19.98;62.35;99871.72;4906914;29;20028;-55
2022/07/31 05:03:50;;;;;;;5.05;2.90;;;;;;;20.35;60.17;99911.66;4906846;29;20073;-55
2022/07/31 05:06:16;;;;;;;4.43;2.72;;;;;;;20.48;60.63;99922.34;4907038;29;20024;-56
2022/07/31 05:08:42;;;;;;;4.50;3.10;;;;;;;20.56;60.83;99919.25;4906632;29;20031;-56
2022/07/31 05:11:23;;;;;;;5.18;2.60;;;;;;;20.66;60.36;99921.25;4906868;29;20131;-55
2022/07/31 05:13:49;;;;;;;4.30;2.45;;;;;;;20.93;59.27;99914.44;4893334;29;20033;-57
2022/07/31 05:16:16;;;;;;;2.70;1.80;;;;;;;21.10;55.94;99922.16;4906722;29;20032;-56
2022/07/31 05:18:44;;;;;;;4.13;2.30;;;;;;;21.42;56.43;99913.19;4906599;29;20254;-55
2022/07/31 05:21:13;;;;;;;3.60;1.90;;;;;;;21.40;57.29;99910.66;4906588;29;20055;-55
2022/07/31 05:23:44;;;;;;;5.05;2.28;;;;;;;21.53;56.13;99918.66;4906501;29;20237;-55
2022/07/31 05:26:10;;;;;;;2.53;2.00;;;;;;;22.14;54.85;99910.38;4907063;29;20056;-55
2022/07/31 05:28:37;;;;;;;3.22;2.00;;;;;;;22.34;54.10;99909.06;4906827;29;20052;-55
2022/07/31 05:31:03;;;;;;;6.38;4.68;;;;;;;22.44;53.47;99911.94;4910242;29;20213;-55
2022/07/31 05:33:29;;;;;;;1.98;1.70;;;;;;;22.19;53.08;99911.75;4910123;29;20044;-55
2022/07/31 05:35:56;;;;;;;5.78;1.92;;;;;;;22.16;53.87;99901.41;4909965;29;20039;-56
2022/07/31 05:38:22;;;;;;;1.98;1.70;;;;;;;22.25;54.51;99902.56;4910252;29;20028;-55
2022/07/31 05:40:47;;;;;;;5.95;3.25;;;;;;;22.17;53.66;99897.78;4909970;29;20036;-56
2022/07/31 05:43:13;;;;;;;5.38;2.15;;;;;;;22.17;54.85;99894.31;4909755;29;20061;-55
2022/07/31 05:45:39;;;;;;;4.25;2.53;;;;;;;22.14;54.20;99895.38;4908975;29;20261;-55
2022/07/31 05:48:04;;;;;;;2.20;2.00;;;;;;;22.26;51.92;99877.03;4922180;29;20056;-57
2022/07/31 05:50:32;;;;;;;3.13;1.70;;;;;;;22.39;51.00;99888.50;4908755;29;20033;-55
2022/07/31 05:52:58;;;;;;;5.80;2.08;;;;;;;22.33;51.54;99879.19;4910085;29;20217;-56
2022/07/31 05:55:24;;;;;;;5.45;2.58;;;;;;;22.14;49.14;99881.34;4921454;29;20048;-55
2022/07/31 05:57:50;;;;;;;3.72;2.25;;;;;;;22.29;49.22;99884.72;4916163;29;20088;-55
2022/07/31 06:00:16;;;;;;;2.90;1.35;;;;;;;22.18;46.98;99888.94;4909576;29;20020;-54
2022/07/31 06:02:41;;;;;;;3.28;1.58;;;;;;;22.29;49.24;99882.97;4909889;29;20028;-55
2022/07/31 06:05:08;;;;;;;3.85;1.85;;;;;;;22.33;49.21;99879.19;4909825;29;20028;-55
2022/07/31 06:07:33;;;;;;;1.90;1.60;;;;;;;22.36;50.04;99896.59;4909180;29;20033;-55
2022/07/31 06:09:59;;;;;;;3.47;1.70;;;;;;;22.26;46.78;99888.44;4909017;29;20039;-55
2022/07/31 06:12:25;;;;;;;4.32;1.70;;;;;;;22.21;46.12;99883.44;4909767;29;20032;-56
2022/07/31 06:14:51;;;;;;;1.65;1.33;;;;;;;22.41;47.11;99882.13;4909108;29;20092;-55
2022/07/31 06:17:16;;;;;;;1.65;1.30;;;;;;;22.52;46.59;99889.34;4908065;29;20224;-55
2022/07/31 06:19:42;;;;;;;1.63;1.48;;;;;;;22.61;47.95;99889.66;4909539;29;20320;-55
2022/07/31 06:22:07;;;;;;;1.05;1.02;;;;;;;22.68;46.89;99894.41;4909146;29;20063;-56
2022/07/31 06:24:33;;;;;;;1.52;1.30;;;;;;;22.68;43.80;99893.56;4909111;29;20032;-55
2022/07/31 06:26:59;;;;;;;1.77;1.10;;;;;;;22.82;44.08;99896.09;4909159;29;20039;-55
2022/07/31 06:29:26;;;;;;;1.00;1.00;;;;;;;22.84;43.04;99899.47;4908929;29;20029;-55
2022/07/31 06:31:55;;;;;;;1.20;1.15;;;;;;;22.79;42.79;99887.53;4909259;29;20091;-55
2022/07/31 06:34:22;;;;;;;2.55;1.27;;;;;;;22.81;44.24;99896.22;4908936;29;20129;-55
2022/07/31 06:36:48;;;;;;;1.92;1.40;;;;;;;22.84;44.92;99894.19;4908737;29;20103;-56
2022/07/31 06:39:15;;;;;;;3.70;1.13;;;;;;;22.83;45.10;99892.53;4908860;29;20028;-56
2022/07/31 06:41:43;;;;;;;1.52;1.33;;;;;;;22.83;44.18;99899.59;4908524;29;20055;-56
2022/07/31 06:44:09;;;;;;;2.20;1.23;;;;;;;22.70;44.12;99884.59;4907617;29;20104;-56
2022/07/31 06:46:35;;;;;;;1.85;0.90;;;;;;;22.45;41.50;99893.34;4920815;29;20073;-56
2022/07/31 06:49:01;;;;;;;2.17;1.00;;;;;;;22.52;43.03;99899.06;4914231;29;20244;-56
2022/07/31 06:51:27;;;;;;;2.22;1.08;;;;;;;22.44;43.97;99889.00;4908507;29;20028;-57
2022/07/31 06:53:53;;;;;;;0.80;0.80;;;;;;;22.40;44.80;99891.03;4908467;29;20321;-56
2022/07/31 06:56:18;;;;;;;0.90;0.90;;;;;;;22.39;45.66;99891.13;4908626;29;20041;-56
2022/07/31 06:58:44;;;;;;;1.23;0.95;;;;;;;22.34;45.90;99885.31;4889799;29;20037;-56
2022/07/31 07:01:09;;;;;;;1.75;1.00;;;;;;;22.35;46.09;99881.72;4906962;29;20033;-56
2022/07/31 07:03:35;;;;;;;1.83;0.98;;;;;;;22.26;46.36;99879.66;4908698;29;20336;-56
2022/07/31 07:06:02;;;;;;;0.90;0.90;;;;;;;22.23;47.47;99878.06;4907536;29;20028;-56
2022/07/31 07:08:28;;;;;;;1.08;0.80;;;;;;;22.28;46.68;99875.16;4923002;29;20042;-56
2022/07/31 07:10:54;;;;;;;0.95;0.95;;;;;;;22.28;45.74;99880.41;4906448;29;20060;-56
2022/07/31 07:13:19;;;;;;;1.95;0.88;;;;;;;22.44;45.86;99890.81;4907398;29;20217;-56
2022/07/31 07:15:45;;;;;;;1.02;0.90;;;;;;;22.46;46.38;99889.78;4908128;29;20028;-56
2022/07/31 07:18:11;;;;;;;1.70;0.70;;;;;;;22.42;45.30;99890.94;4906851;29;20029;-56
2022/07/31 07:20:37;;;;;;;1.77;0.90;;;;;;;22.44;43.39;99888.19;4908244;29;20246;-56
2022/07/31 07:23:03;;;;;;;0.88;0.88;;;;;;;22.59;45.54;99884.50;4907124;29;20055;-56
2022/07/31 07:25:30;;;;;;;1.50;1.05;;;;;;;22.71;44.86;99881.00;4908212;29;20088;-55
2022/07/31 07:27:55;;;;;;;1.95;1.20;;;;;;;22.78;45.38;99883.22;4906780;29;20041;-55
2022/07/31 07:30:22;;;;;;;2.13;0.90;;;;;;;22.72;44.05;99880.06;4907875;29;20056;-54
2022/07/31 07:32:48;;;;;;;1.42;1.02;;;;;;;22.61;37.98;99882.59;4908242;29;20048;-55
2022/07/31 07:35:13;;;;;;;1.05;0.93;;;;;;;22.75;40.20;99881.63;4907955;29;20070;-56
2022/07/31 07:37:40;;;;;;;1.60;1.17;;;;;;;22.87;39.82;99883.44;4907945;29;20033;-55
2022/07/31 07:40:08;;;;;;;3.95;1.80;;;;;;;22.96;40.99;99886.38;4907599;29;20059;-55
2022/07/31 07:42:34;;;;;;;3.20;1.10;;;;;;;23.04;39.04;99876.94;4906630;29;20036;-56
2022/07/31 07:45:00;;;;;;;1.38;1.08;;;;;;;23.12;35.93;99876.44;4907823;29;20036;-55
2022/07/31 07:47:25;;;;;;;1.40;1.10;;;;;;;23.37;38.56;99877.34;4889623;29;20049;-55
2022/07/31 07:49:51;;;;;;;1.67;1.27;;;;;;;23.31;39.22;99875.13;4907739;29;20325;-56
2022/07/31 07:52:17;;;;;;;2.55;1.13;;;;;;;23.47;39.30;99881.00;4914929;29;20297;-56
2022/07/31 07:54:43;;;;;;;1.15;0.85;;;;;;;23.50;35.43;99874.66;4915694;29;20028;-56
2022/07/31 07:57:13;;;;;;;0.88;0.88;;;;;;;23.74;36.30;99872.00;4912507;29;20028;-56
2022/07/31 07:59:39;;;;;;;3.70;1.20;;;;;;;23.66;38.07;99869.06;4920665;29;20020;-56
2022/07/31 08:02:04;;;;;;;1.92;0.90;;;;;;;23.55;38.56;99861.94;4917993;29;20220;-57
2022/07/31 08:04:30;;;;;;;3.08;1.30;;;;;;;23.56;39.38;99864.47;4912509;29;20043;-56
2022/07/31 08:06:56;;;;;;;2.55;1.17;;;;;;;23.58;39.88;99857.25;4917792;29;20024;-56
2022/07/31 08:09:22;;;;;;;4.07;1.50;;;;;;;23.52;40.38;99855.09;4918749;29;20019;-56
2022/07/31 08:11:48;;;;;;;1.20;1.02;;;;;;;23.73;38.34;99867.69;4923157;29;20055;-57
2022/07/31 08:14:14;;;;;;;2.15;1.45;;;;;;;23.84;39.00;99862.44;4907212;29;20039;-56
2022/07/31 08:16:39;;;;;;;1.20;1.10;;;;;;;23.88;38.29;99858.63;4907283;29;20029;-56
2022/07/31 08:19:05;;;;;;;1.30;1.10;;;;;;;23.89;38.30;99856.84;4912045;29;20376;-56
2022/07/31 08:21:31;;;;;;;2.35;1.00;;;;;;;23.85;37.90;99852.72;4917409;29;20034;-56
2022/07/31 08:23:57;;;;;;;1.67;1.10;;;;;;;23.98;38.73;99850.84;4915749;29;20028;-55
2022/07/31 08:26:22;;;;;;;3.63;1.40;;;;;;;23.95;40.41;99854.56;4918145;29;20072;-55
2022/07/31 08:28:48;;;;;;;1.63;1.30;;;;;;;24.09;39.60;99855.34;4931664;29;20028;-55
2022/07/31 08:31:14;;;;;;;2.17;1.50;;;;;;;24.09;39.84;99848.25;4917038;29;20328;-55
2022/07/31 08:33:40;;;;;;;2.85;1.70;;;;;;;24.06;39.68;99848.50;4907290;29;20281;-56
2022/07/31 08:36:07;;;;;;;4.68;1.63;;;;;;;23.84;40.22;99849.22;4915745;29;20024;-56
2022/07/31 08:38:35;;;;;;;3.20;1.58;;;;;;;24.02;39.92;99844.38;4915667;29;20194;-56
2022/07/31 08:41:00;;;;;;;1.40;1.30;;;;;;;24.03;38.99;99850.50;4914988;29;20024;-55
2022/07/31 08:43:26;;;;;;;3.28;1.50;;;;;;;24.03;39.91;99850.50;4915669;29;20036;-55
2022/07/31 08:45:53;;;;;;;2.15;1.77;;;;;;;23.79;41.02;99840.78;4915573;29;20044;-56
2022/07/31 08:48:22;;;;;;;4.43;1.92;;;;;;;23.66;41.80;99813.53;4918801;29;20049;-56
2022/07/31 08:50:48;;;;;;;2.17;1.80;;;;;;;23.85;41.46;99850.06;4906958;29;20036;-56
2022/07/31 08:53:15;;;;;;;3.58;2.10;;;;;;;23.69;40.57;99853.00;4905365;29;20273;-56
2022/07/31 08:55:43;;;;;;;3.92;1.50;;;;;;;23.66;40.35;99816.19;4921132;29;20219;-56
2022/07/31 08:58:09;;;;;;;4.15;1.77;;;;;;;23.79;41.18;99838.16;4911988;29;20043;-56
2022/07/31 09:00:34;;;;;;;5.43;2.08;;;;;;;23.73;41.27;99843.91;4906256;29;20033;-56
2022/07/31 09:03:02;;;;;;;3.30;1.67;;;;;;;23.70;41.40;99846.75;4906884;29;20051;-56
2022/07/31 09:05:27;;;;;;;1.85;1.48;;;;;;;23.58;40.64;99841.41;4910066;29;20273;-56
2022/07/31 09:07:53;;;;;;;3.35;1.40;;;;;;;23.58;39.37;99844.03;4910610;29;20031;-57
2022/07/31 09:10:24;;;;;;;4.60;1.55;;;;;;;23.44;37.73;99837.16;4909922;29;20039;-58
2022/07/31 09:12:51;;;;;;;4.65;1.75;;;;;;;23.54;39.13;99836.47;4908780;29;20036;-56
2022/07/31 09:15:24;;;;;;;3.75;1.70;;;;;;;23.27;39.25;99797.84;4908737;29;20024;-57
2022/07/31 09:17:51;;;;;;;8.68;2.15;;;;;;;23.41;39.81;99833.88;4909620;29;20024;-56
2022/07/31 09:20:19;;;;;;;2.65;1.30;;;;;;;23.27;38.80;99848.06;4910165;29;20325;-56
2022/07/31 09:22:45;;;;;;;2.45;1.38;;;;;;;23.23;38.88;99839.53;4910028;29;20084;-56
2022/07/31 09:25:17;;;;;;;4.18;1.50;;;;;;;22.99;39.01;99798.97;4909962;29;20043;-56
2022/07/31 09:27:44;;;;;;;3.05;1.50;;;;;;;23.52;39.64;99831.28;4909215;29;20138;-55
2022/07/31 09:30:10;;;;;;;4.45;1.52;;;;;;;23.57;38.75;99831.81;4912478;29;20253;-55
2022/07/31 09:32:36;;;;;;;1.83;1.33;;;;;;;23.72;40.07;99842.19;4924190;29;20095;-55
2022/07/31 09:35:10;;;;;;;2.22;1.33;;;;;;;23.60;39.16;99796.34;4910207;29;20225;-54
2022/07/31 09:37:36;;;;;;;2.97;1.50;;;;;;;24.03;40.12;99829.34;4910314;29;20052;-55
2022/07/31 09:40:03;;;;;;;4.03;1.50;;;;;;;24.11;39.39;99840.19;4908925;29;20040;-55
2022/07/31 09:42:37;;;;;;;2.78;1.70;;;;;;;23.96;37.95;99850.16;4902283;29;20032;-55
2022/07/31 09:45:04;;;;;;;3.72;1.73;;;;;;;23.99;39.36;99834.03;4895899;29;20084;-56
2022/07/31 09:47:31;;;;;;;3.55;1.77;;;;;;;23.65;38.28;99841.81;4926827;29;20070;-55
2022/07/31 09:50:03;;;;;;;3.22;1.35;;;;;;;23.76;39.47;99836.56;4901490;29;20020;-55
2022/07/31 09:52:31;;;;;;;4.15;1.60;;;;;;;24.03;41.15;99831.97;4910397;29;20099;-55
2022/07/31 09:55:14;;;;;;;4.05;1.40;;;;;;;23.81;41.01;99793.06;4909483;29;20051;-55
2022/07/31 09:57:54;;;;;;;4.97;2.63;;;;;;;24.07;41.85;99846.69;4909878;29;20045;-55
2022/07/31 10:00:20;;;;;;;5.68;1.67;;;;;;;23.94;41.72;99844.09;4917025;29;20036;-57
2022/07/31 10:02:47;;;;;;;3.75;1.83;;;;;;;23.81;41.51;99844.16;4920936;29;20210;-56
2022/07/31 10:05:14;;;;;;;4.57;1.35;;;;;;;23.77;41.66;99847.97;4909678;29;20029;-56
2022/07/31 10:07:41;;;;;;;2.13;1.50;;;;;;;23.74;42.71;99848.22;4913888;29;20021;-56
2022/07/31 10:10:08;;;;;;;6.63;2.25;;;;;;;23.81;42.22;99852.09;4915674;29;20096;-56
2022/07/31 10:12:40;;;;;;;6.53;2.15;;;;;;;23.78;42.28;99844.38;4909563;29;20020;-57
2022/07/31 10:15:10;;;;;;;4.07;1.77;;;;;;;23.91;40.39;99857.56;4909082;29;20033;-55
2022/07/31 10:17:39;;;;;;;2.22;1.60;;;;;;;24.01;41.33;99844.50;4915722;29;20052;-56
2022/07/31 10:20:07;;;;;;;1.48;1.33;;;;;;;23.98;41.13;99850.03;4920001;29;20313;-55
2022/07/31 10:22:44;;;;;;;4.20;1.40;;;;;;;24.01;42.18;99860.38;4917420;29;20045;-56
2022/07/31 10:25:18;;;;;;;3.83;1.50;;;;;;;24.00;41.61;99821.63;4903368;29;20028;-55
2022/07/31 10:27:44;;;;;;;1.85;1.50;;;;;;;24.23;40.46;99833.97;4908996;29;20287;-56
2022/07/31 10:30:11;;;;;;;4.72;1.80;;;;;;;24.14;38.83;99842.59;4909211;29;20024;-55
2022/07/31 10:32:37;;;;;;;2.38;1.60;;;;;;;24.24;39.74;99835.69;4923743;29;20071;-55
2022/07/31 10:35:06;;;;;;;5.00;2.20;;;;;;;24.33;39.55;99835.91;4909104;29;20032;-55
2022/07/31 10:37:44;;;;;;;4.15;1.58;;;;;;;24.09;39.78;99803.25;4908995;29;20453;-54
2022/07/31 10:40:22;;;;;;;4.68;1.60;;;;;;;24.32;38.37;99831.59;4908751;29;20325;-56
2022/07/31 10:43:00;;;;;;;3.50;1.70;;;;;;;24.28;37.25;99829.19;4899066;29;20096;-55
2022/07/31 10:45:28;;;;;;;4.05;1.48;;;;;;;24.36;36.98;99827.75;4899273;29;20024;-54
2022/07/31 10:47:56;;;;;;;3.42;1.58;;;;;;;24.08;37.13;99821.91;4924735;29;20052;-55
2022/07/31 10:50:23;;;;;;;4.55;2.45;;;;;;;24.26;38.16;99827.63;4908732;29;20075;-55
2022/07/31 10:52:49;;;;;;;6.30;2.00;;;;;;;24.28;39.44;99815.09;4908407;29;20039;-56
2022/07/31 10:55:22;;;;;;;5.80;1.67;;;;;;;24.27;37.32;99818.69;4911676;29;20056;-56
2022/07/31 10:57:48;;;;;;;3.88;1.63;;;;;;;24.28;37.88;99815.94;4918372;29;20317;-56
2022/07/31 11:00:16;;;;;;;3.20;1.85;;;;;;;24.21;38.30;99817.34;4915350;29;20040;-56
2022/07/31 11:02:42;;;;;;;1.75;1.50;;;;;;;24.16;38.90;99813.38;4918491;29;20316;-56
2022/07/31 11:05:20;;;;;;;5.93;1.75;;;;;;;23.80;39.13;99765.78;4917123;29;20047;-58
2022/07/31 11:07:46;;;;;;;3.40;1.55;;;;;;;24.09;39.26;99810.38;4908421;29;20063;-56
2022/07/31 11:10:13;;;;;;;5.68;1.88;;;;;;;24.10;39.21;99809.41;4908062;29;20028;-57
2022/07/31 11:12:39;;;;;;;2.08;1.65;;;;;;;24.14;39.47;99805.56;4908183;29;20051;-57
2022/07/31 11:15:20;;;;;;;2.70;1.77;;;;;;;24.22;39.60;99803.16;4908156;29;20206;-57
2022/07/31 11:17:46;;;;;;;2.58;1.80;;;;;;;24.19;39.40;99799.94;4908344;29;20036;-56
2022/07/31 11:20:25;;;;;;;4.80;1.80;;;;;;;24.21;38.62;99798.00;4907905;29;20206;-54
2022/07/31 11:22:54;;;;;;;2.13;1.60;;;;;;;24.19;38.38;99800.75;4908250;29;20024;-56
2022/07/31 11:25:21;;;;;;;4.20;1.67;;;;;;;24.25;40.04;99794.16;4908157;29;20031;-53
2022/07/31 11:27:47;;;;;;;2.95;1.83;;;;;;;24.14;39.54;99805.56;4905929;29;20229;-57
2022/07/31 11:30:13;;;;;;;6.88;1.77;;;;;;;24.18;40.05;99795.59;4907717;29;20036;-55
2022/07/31 11:32:38;;;;;;;4.72;2.42;;;;;;;24.11;39.83;99796.06;4907926;29;20028;-56
2022/07/31 11:35:04;;;;;;;1.50;1.40;;;;;;;23.98;41.46;99794.47;4906807;29;20213;-55